Time;durP1;ratioP1;P1;durP2;ratioP2;P2;SDS_P1;SDS_P2;PMS_P1;PMS_P2;Temp;Humidity;BMP_temperature;BMP_pressure;BME280_temperature;BME280_humidity;BME280_pressure;Samples;Min_cycle;Max_cycle;Signal;HPM_P1;HPM_P2
2023/03/16 00:00:20;;;;;;;16.67;15.77;;;;;;;-141.22;100.00;65034.22;4997759;28;20457;-45
2023/03/16 00:02:48;;;;;;;17.57;16.10;;;;;;;-141.22;100.00;65034.22;4998074;28;20433;-48
2023/03/16 00:05:16;;;;;;;16.60;15.40;;;;;;;-141.22;100.00;65034.22;4997729;28;20466;-46
2023/03/16 00:07:45;;;;;;;15.50;14.40;;;;;;;-141.22;100.00;65034.22;4997911;28;20938;-44
2023/03/16 00:10:13;;;;;;;15.43;14.50;;;;;;;-141.22;100.00;65034.22;4997842;28;20454;-48
2023/03/16 00:12:42;;;;;;;25.37;16.60;;;;;;;-141.22;100.00;65034.22;4998212;28;20524;-46
2023/03/16 00:15:10;;;;;;;27.63;16.60;;;;;;;-141.22;100.00;65034.22;4997260;28;21002;-46
2023/03/16 00:17:38;;;;;;;16.23;15.10;;;;;;;-141.22;100.00;65034.22;4998027;28;20430;-44
2023/03/16 00:20:07;;;;;;;17.80;16.60;;;;;;;-141.22;100.00;65034.22;4998670;28;20815;-44
2023/03/16 00:22:34;;;;;;;17.90;16.60;;;;;;;-141.22;100.00;65034.22;4997253;28;20840;-45
2023/03/16 00:25:04;;;;;;;17.90;16.90;;;;;;;-141.22;100.00;65034.22;4996957;28;20436;-45
2023/03/16 00:27:32;;;;;;;20.97;16.23;;;;;;;-141.22;100.00;65034.22;4998456;28;20425;-44
2023/03/16 00:30:02;;;;;;;18.87;16.93;;;;;;;-141.22;100.00;65034.22;4998002;28;20457;-48
2023/03/16 00:32:32;;;;;;;16.33;15.53;;;;;;;-141.22;100.00;65034.22;4997524;28;20473;-45
2023/03/16 00:35:00;;;;;;;16.90;15.70;;;;;;;-141.22;100.00;65034.22;4997925;28;20426;-47
2023/03/16 00:37:29;;;;;;;16.53;15.70;;;;;;;-141.22;100.00;65034.22;4998044;28;20536;-44
2023/03/16 00:39:57;;;;;;;19.10;17.47;;;;;;;-141.22;100.00;65034.22;4997546;28;20520;-44
2023/03/16 00:42:28;;;;;;;16.87;15.70;;;;;;;-141.22;100.00;65034.22;4997834;28;20446;-45
2023/03/16 00:44:56;;;;;;;16.90;15.77;;;;;;;-141.22;100.00;65034.22;4996932;28;20419;-48
2023/03/16 00:47:25;;;;;;;17.97;16.67;;;;;;;-141.22;100.00;65034.22;4997702;28;20469;-44
2023/03/16 00:49:53;;;;;;;17.27;15.63;;;;;;;-141.22;100.00;65034.22;4998275;28;20485;-47
2023/03/16 00:52:22;;;;;;;18.10;16.47;;;;;;;-141.22;100.00;65034.22;4997163;28;20474;-44
2023/03/16 00:54:51;;;;;;;18.97;17.20;;;;;;;-141.22;100.00;65034.22;4997577;28;20433;-45
2023/03/16 00:57:22;;;;;;;19.17;17.43;;;;;;;-141.22;100.00;65034.22;4997499;28;20457;-44
2023/03/16 00:59:51;;;;;;;15.87;14.83;;;;;;;-141.22;100.00;65034.22;4997863;28;20507;-48
2023/03/16 01:02:22;;;;;;;17.43;16.23;;;;;;;-141.22;100.00;65034.22;4997316;28;20919;-44
2023/03/16 01:04:50;;;;;;;17.83;16.67;;;;;;;-141.22;100.00;65034.22;4999534;28;20414;-46
2023/03/16 01:07:19;;;;;;;18.90;17.43;;;;;;;-141.22;100.00;65034.22;4997683;28;20496;-45
2023/03/16 01:09:47;;;;;;;17.67;16.50;;;;;;;-141.22;100.00;65034.22;4998993;28;20461;-47
2023/03/16 01:12:17;;;;;;;17.43;16.60;;;;;;;-141.22;100.00;65034.22;4999304;28;20883;-44
2023/03/16 01:14:45;;;;;;;18.53;17.30;;;;;;;-141.22;100.00;65034.22;5001360;28;20434;-45
2023/03/16 01:17:16;;;;;;;18.93;17.17;;;;;;;-141.22;100.00;65034.22;4999994;28;20462;-48
2023/03/16 01:19:45;;;;;;;19.77;17.60;;;;;;;-141.22;100.00;65034.22;5000606;28;20489;-45
2023/03/16 01:22:13;;;;;;;17.03;15.93;;;;;;;-141.22;100.00;65034.22;5000617;28;21007;-51
2023/03/16 01:24:44;;;;;;;16.53;15.60;;;;;;;-141.22;100.00;65034.22;5001162;28;20509;-50
2023/03/16 01:27:12;;;;;;;16.43;15.53;;;;;;;-141.22;100.00;65034.22;5001437;28;20517;-45
2023/03/16 01:29:42;;;;;;;17.93;16.17;;;;;;;-141.22;100.00;65034.22;5000275;28;20458;-45
2023/03/16 01:32:11;;;;;;;17.33;15.77;;;;;;;-141.22;100.00;65034.22;5000860;28;20458;-45
2023/03/16 01:34:40;;;;;;;16.60;15.70;;;;;;;-141.22;100.00;65034.22;5000487;28;20426;-45
2023/03/16 01:37:08;;;;;;;18.03;16.60;;;;;;;-141.22;100.00;65034.22;5000681;28;20540;-50
2023/03/16 01:39:35;;;;;;;16.20;15.40;;;;;;;-141.22;100.00;65034.22;5000533;28;20473;-44
2023/03/16 01:42:03;;;;;;;17.40;16.50;;;;;;;-141.22;100.00;65034.22;5000445;28;20779;-49
2023/03/16 01:44:50;;;;;;;17.87;16.30;;;;;;;-141.22;100.00;65034.22;5000675;28;20438;-49
2023/03/16 01:47:18;;;;;;;18.70;17.27;;;;;;;-141.22;100.00;65034.22;5000135;28;20974;-47
2023/03/16 01:49:47;;;;;;;19.13;17.67;;;;;;;-141.22;100.00;65034.22;4999994;28;20520;-44
2023/03/16 01:52:19;;;;;;;19.00;18.10;;;;;;;-141.22;100.00;65034.22;4999491;28;20469;-44
2023/03/16 01:54:49;;;;;;;19.07;17.93;;;;;;;-141.22;100.00;65034.22;5000072;28;20449;-47
2023/03/16 01:57:20;;;;;;;17.27;16.30;;;;;;;-141.22;100.00;65034.22;4999051;28;20538;-44
2023/03/16 01:59:52;;;;;;;18.67;17.03;;;;;;;-141.22;100.00;65034.22;5000500;28;20964;-45
2023/03/16 02:02:24;;;;;;;18.33;17.10;;;;;;;-141.22;100.00;65034.22;4999376;28;20518;-44
2023/03/16 02:04:58;;;;;;;16.90;16.10;;;;;;;-141.22;100.00;65034.22;4999503;28;20425;-44
2023/03/16 02:07:29;;;;;;;18.90;17.63;;;;;;;-141.22;100.00;65034.22;5000474;28;20579;-48
2023/03/16 02:10:01;;;;;;;19.10;17.40;;;;;;;-141.22;100.00;65034.22;4999568;28;20462;-44
2023/03/16 02:12:29;;;;;;;18.50;17.40;;;;;;;-141.22;100.00;65034.22;4999873;28;20474;-46
2023/03/16 02:14:57;;;;;;;17.67;16.57;;;;;;;-141.22;100.00;65034.22;4999332;28;20528;-47
2023/03/16 02:17:28;;;;;;;18.80;17.00;;;;;;;-141.22;100.00;65034.22;5000332;28;20434;-45
2023/03/16 02:20:12;;;;;;;17.70;16.90;;;;;;;-141.22;100.00;65034.22;5000238;28;20459;-47
2023/03/16 02:22:43;;;;;;;18.50;17.40;;;;;;;-141.22;100.00;65034.22;4999805;28;20430;-48
2023/03/16 02:25:14;;;;;;;16.70;16.00;;;;;;;-141.22;100.00;65034.22;4999019;28;20817;-44
2023/03/16 02:27:52;;;;;;;17.40;16.40;;;;;;;-141.22;100.00;65034.22;5000012;28;20422;-47
2023/03/16 02:30:21;;;;;;;18.57;16.87;;;;;;;-141.22;100.00;65034.22;4999165;28;20573;-44
2023/03/16 02:32:52;;;;;;;19.87;16.40;;;;;;;-141.22;100.00;65034.22;4999058;28;20469;-46
2023/03/16 02:35:21;;;;;;;17.57;16.53;;;;;;;-141.22;100.00;65034.22;4999000;28;20987;-44
2023/03/16 02:37:49;;;;;;;19.40;17.80;;;;;;;-141.22;100.00;65034.22;4999710;28;20454;-46
2023/03/16 02:40:21;;;;;;;18.63;17.07;;;;;;;-141.22;100.00;65034.22;4999187;28;20473;-47
2023/03/16 02:42:55;;;;;;;18.77;17.30;;;;;;;-141.22;100.00;65034.22;4999283;28;20753;-44
2023/03/16 02:45:28;;;;;;;19.07;18.00;;;;;;;-141.22;100.00;65034.22;4999087;28;20442;-45
2023/03/16 02:48:02;;;;;;;18.40;17.30;;;;;;;-141.22;100.00;65034.22;4999753;28;20414;-47
2023/03/16 02:50:29;;;;;;;18.00;16.90;;;;;;;-141.22;100.00;65034.22;4998902;28;20808;-44
2023/03/16 02:52:57;;;;;;;18.50;17.30;;;;;;;-141.22;100.00;65034.22;4998687;28;20491;-48
2023/03/16 02:55:25;;;;;;;20.23;18.83;;;;;;;-141.22;100.00;65034.22;4998865;28;20464;-47
2023/03/16 02:57:52;;;;;;;19.80;18.50;;;;;;;-141.22;100.00;65034.22;4998681;28;20468;-44
2023/03/16 03:00:21;;;;;;;19.47;17.77;;;;;;;-141.22;100.00;65034.22;4998893;28;20459;-46
2023/03/16 03:02:51;;;;;;;18.47;17.13;;;;;;;-141.22;100.00;65034.22;4998856;28;20510;-50
2023/03/16 03:05:20;;;;;;;18.33;17.43;;;;;;;-141.22;100.00;65034.22;4998641;28;20509;-45
2023/03/16 03:07:47;;;;;;;19.37;18.27;;;;;;;-141.22;100.00;65034.22;4999549;28;20441;-44
2023/03/16 03:10:15;;;;;;;19.63;18.00;;;;;;;-141.22;100.00;65034.22;4998444;28;20937;-47
2023/03/16 03:12:48;;;;;;;18.50;17.40;;;;;;;-141.22;100.00;65034.22;4998345;28;20473;-48
2023/03/16 03:15:16;;;;;;;18.27;17.47;;;;;;;-141.22;100.00;65034.22;4998308;28;20545;-48
2023/03/16 03:17:45;;;;;;;20.03;18.53;;;;;;;-141.22;100.00;65034.22;4998911;28;20433;-44
2023/03/16 03:20:15;;;;;;;20.37;19.07;;;;;;;-141.22;100.00;65034.22;4998397;28;20472;-49
2023/03/16 03:22:45;;;;;;;19.53;18.53;;;;;;;-141.22;100.00;65034.22;4998543;28;20430;-44
2023/03/16 03:25:14;;;;;;;20.70;19.40;;;;;;;-141.22;100.00;65034.22;4997832;28;20461;-45
2023/03/16 03:27:42;;;;;;;26.50;20.40;;;;;;;-141.22;100.00;65034.22;4998499;28;20565;-44
2023/03/16 03:30:12;;;;;;;21.77;20.20;;;;;;;-141.22;100.00;65034.22;4998427;28;20458;-47
2023/03/16 03:32:40;;;;;;;21.97;20.17;;;;;;;-141.22;100.00;65034.22;4998689;28;20504;-47
2023/03/16 03:35:11;;;;;;;21.30;20.10;;;;;;;-141.22;100.00;65034.22;4998014;28;20426;-44
2023/03/16 03:37:41;;;;;;;21.13;19.67;;;;;;;-141.22;100.00;65034.22;4998756;28;20434;-44
2023/03/16 03:40:11;;;;;;;22.63;21.00;;;;;;;-141.22;100.00;65034.22;4998456;28;20497;-45
2023/03/16 03:42:39;;;;;;;21.83;20.23;;;;;;;-141.22;100.00;65034.22;4998131;28;20437;-45
2023/03/16 03:45:11;;;;;;;21.90;20.73;;;;;;;-141.22;100.00;65034.22;4998173;28;20433;-46
2023/03/16 03:47:40;;;;;;;22.13;20.73;;;;;;;-141.22;100.00;65034.22;4998887;28;20490;-51
2023/03/16 03:50:09;;;;;;;25.40;22.80;;;;;;;-141.22;100.00;65034.22;4998813;28;20446;-52
2023/03/16 03:52:37;;;;;;;24.37;22.47;;;;;;;-141.22;100.00;65034.22;4998557;28;20882;-47
2023/03/16 03:55:07;;;;;;;23.33;21.57;;;;;;;-141.22;100.00;65034.22;4997763;28;20441;-47
2023/03/16 03:57:35;;;;;;;24.50;22.73;;;;;;;-141.22;100.00;65034.22;4998069;28;20430;-48
2023/03/16 04:00:06;;;;;;;24.80;23.27;;;;;;;-141.22;100.00;65034.22;4998367;28;20464;-47
2023/03/16 04:02:34;;;;;;;26.17;24.27;;;;;;;-141.22;100.00;65034.22;4998291;28;20493;-47
2023/03/16 04:05:02;;;;;;;25.20;23.60;;;;;;;-141.22;100.00;65034.22;4998464;28;20460;-46
2023/03/16 04:07:30;;;;;;;24.43;22.60;;;;;;;-141.22;100.00;65034.22;4998335;28;20429;-47
2023/03/16 04:09:57;;;;;;;27.50;25.37;;;;;;;-141.22;100.00;65034.22;4998092;28;20454;-49
2023/03/16 04:12:27;;;;;;;24.17;22.90;;;;;;;-141.22;100.00;65034.22;4998489;28;20438;-50
2023/03/16 04:14:54;;;;;;;25.67;23.60;;;;;;;-141.22;100.00;65034.22;4997494;28;20480;-44
2023/03/16 04:17:22;;;;;;;25.60;24.10;;;;;;;-141.22;100.00;65034.22;4997965;28;20800;-45
2023/03/16 04:19:50;;;;;;;24.83;23.33;;;;;;;-141.22;100.00;65034.22;4998354;28;20457;-44
2023/03/16 04:22:18;;;;;;;25.00;23.50;;;;;;;-141.22;100.00;65034.22;4997620;28;20437;-48
2023/03/16 04:24:46;;;;;;;26.47;24.67;;;;;;;-141.22;100.00;65034.22;4998049;28;20430;-44
2023/03/16 04:27:13;;;;;;;27.37;25.13;;;;;;;-141.22;100.00;65034.22;4997294;28;20470;-49
2023/03/16 04:29:42;;;;;;;28.40;26.40;;;;;;;-141.22;100.00;65034.22;4997860;28;21000;-45
2023/03/16 04:32:10;;;;;;;27.23;24.73;;;;;;;-141.22;100.00;65034.22;4998173;28;20496;-44
2023/03/16 04:34:40;;;;;;;25.43;23.80;;;;;;;-141.22;100.00;65034.22;4998280;28;20469;-46
2023/03/16 04:37:08;;;;;;;27.67;25.33;;;;;;;-141.22;100.00;65034.22;4997174;28;21006;-45
2023/03/16 04:39:36;;;;;;;26.13;24.00;;;;;;;-141.22;100.00;65034.22;4999745;28;20469;-45
2023/03/16 04:42:05;;;;;;;27.37;24.90;;;;;;;-141.22;100.00;65034.22;5001514;28;20438;-45
2023/03/16 04:44:32;;;;;;;25.80;24.30;;;;;;;-141.22;100.00;65034.22;5002109;28;20430;-45
2023/03/16 04:47:01;;;;;;;26.73;24.93;;;;;;;-141.22;100.00;65034.22;5000884;28;20466;-46
2023/03/16 04:49:29;;;;;;;25.17;23.30;;;;;;;-141.22;100.00;65034.22;5001878;28;20815;-44
2023/03/16 04:51:56;;;;;;;26.37;24.60;;;;;;;-141.22;100.00;65034.22;5001223;28;20444;-47
2023/03/16 04:54:24;;;;;;;28.40;26.30;;;;;;;-141.22;100.00;65034.22;5001869;28;20478;-45
2023/03/16 04:56:52;;;;;;;27.30;25.20;;;;;;;-141.22;100.00;65034.22;5001014;28;20516;-47
2023/03/16 04:59:19;;;;;;;27.30;25.47;;;;;;;-141.22;100.00;65034.22;5001347;28;20450;-45
2023/03/16 05:01:47;;;;;;;25.67;23.87;;;;;;;-141.22;100.00;65034.22;5000934;28;20446;-44
2023/03/16 05:04:16;;;;;;;24.83;23.20;;;;;;;-141.22;100.00;65034.22;5001489;28;20931;-44
2023/03/16 05:06:46;;;;;;;24.37;22.77;;;;;;;-141.22;100.00;65034.22;5001013;28;20472;-46
2023/03/16 05:09:14;;;;;;;25.90;24.17;;;;;;;-141.22;100.00;65034.22;5001348;28;20457;-44
2023/03/16 05:11:41;;;;;;;26.47;24.83;;;;;;;-141.22;100.00;65034.22;5000829;28;21047;-44
2023/03/16 05:14:09;;;;;;;28.17;25.80;;;;;;;-141.22;100.00;65034.22;5000772;28;20473;-44
2023/03/16 05:16:37;;;;;;;26.30;24.90;;;;;;;-141.22;100.00;65034.22;5001017;28;20512;-46
2023/03/16 05:19:05;;;;;;;27.97;25.67;;;;;;;-141.22;100.00;65034.22;5001094;28;20501;-48
2023/03/16 05:21:36;;;;;;;28.47;26.10;;;;;;;-141.22;100.00;65034.22;5000464;28;20518;-47
2023/03/16 05:24:04;;;;;;;27.10;25.00;;;;;;;-141.22;100.00;65034.22;5000957;28;20434;-44
2023/03/16 05:26:32;;;;;;;29.60;25.50;;;;;;;-141.22;100.00;65034.22;5000392;28;20839;-46
2023/03/16 05:29:00;;;;;;;26.63;25.00;;;;;;;-141.22;100.00;65034.22;5000206;28;20438;-46
2023/03/16 05:31:31;;;;;;;27.37;25.40;;;;;;;-141.22;100.00;65034.22;5000500;28;20496;-45
2023/03/16 05:33:59;;;;;;;26.40;24.83;;;;;;;-141.22;100.00;65034.22;5000283;28;20898;-48
2023/03/16 05:36:28;;;;;;;28.57;26.07;;;;;;;-141.22;100.00;65034.22;5000183;28;20465;-47
2023/03/16 05:38:58;;;;;;;25.80;23.93;;;;;;;-141.22;100.00;65034.22;5000290;28;20947;-47
2023/03/16 05:41:25;;;;;;;25.00;23.17;;;;;;;-141.22;100.00;65034.22;5019170;23;20482;-49
2023/03/16 05:43:53;;;;;;;24.87;23.23;;;;;;;-141.22;100.00;65034.22;4994509;28;20426;-50
2023/03/16 05:46:21;;;;;;;25.20;23.23;;;;;;;-141.22;100.00;65034.22;4994365;28;20465;-49
2023/03/16 05:48:48;;;;;;;23.23;21.80;;;;;;;-141.22;100.00;65034.22;4994822;28;20517;-53
2023/03/16 05:51:16;;;;;;;25.70;24.00;;;;;;;-141.22;100.00;65034.22;4993943;28;20461;-51
2023/03/16 05:53:45;;;;;;;28.23;25.70;;;;;;;-141.22;100.00;65034.22;4994428;28;20795;-49
2023/03/16 05:56:14;;;;;;;26.27;24.33;;;;;;;-141.22;100.00;65034.22;4993962;28;20545;-48
2023/03/16 05:58:42;;;;;;;25.60;23.90;;;;;;;-141.22;100.00;65034.22;4994607;28;20453;-51
2023/03/16 06:01:11;;;;;;;26.23;24.73;;;;;;;-141.22;100.00;65034.22;4994533;28;20847;-49
2023/03/16 06:03:40;;;;;;;25.77;24.20;;;;;;;-141.22;100.00;65034.22;4994336;28;20839;-49
2023/03/16 06:06:08;;;;;;;28.77;26.40;;;;;;;-141.22;100.00;65034.22;4993675;28;20465;-48
2023/03/16 06:08:36;;;;;;;25.40;23.77;;;;;;;-141.22;100.00;65034.22;4994304;28;20788;-49
2023/03/16 06:11:03;;;;;;;27.33;25.73;;;;;;;-141.22;100.00;65034.22;4993947;28;20458;-53
2023/03/16 06:13:32;;;;;;;26.53;24.97;;;;;;;-141.22;100.00;65034.22;4993798;28;20935;-50
2023/03/16 06:16:00;;;;;;;28.37;26.00;;;;;;;-141.22;100.00;65034.22;4993564;28;20474;-49
2023/03/16 06:18:28;;;;;;;26.37;24.97;;;;;;;-141.22;100.00;65034.22;4994129;28;20879;-49
2023/03/16 06:20:56;;;;;;;27.57;26.07;;;;;;;-141.22;100.00;65034.22;4994067;28;20477;-55
2023/03/16 06:23:23;;;;;;;30.80;28.30;;;;;;;-141.22;100.00;65034.22;4993594;28;20430;-52
2023/03/16 06:25:53;;;;;;;30.23;28.30;;;;;;;-141.22;100.00;65034.22;4993597;28;20829;-54
2023/03/16 06:28:22;;;;;;;32.03;29.90;;;;;;;-141.22;100.00;65034.22;4993767;28;20423;-51
2023/03/16 06:30:54;;;;;;;30.40;28.30;;;;;;;-141.22;100.00;65034.22;4993821;28;20441;-54
2023/03/16 06:33:22;;;;;;;32.53;30.07;;;;;;;-141.22;100.00;65034.22;4993931;28;20978;-54
2023/03/16 06:35:50;;;;;;;30.37;28.30;;;;;;;-141.22;100.00;65034.22;4993106;28;20483;-52
2023/03/16 06:38:18;;;;;;;29.30;27.60;;;;;;;-141.22;100.00;65034.22;4993591;28;20894;-55
2023/03/16 06:40:50;;;;;;;29.37;27.73;;;;;;;-141.22;100.00;65034.22;4993598;28;20442;-54
2023/03/16 06:43:18;;;;;;;28.37;27.03;;;;;;;-141.22;100.00;65034.22;4993547;28;20795;-52
2023/03/16 06:45:46;;;;;;;31.07;28.67;;;;;;;-141.22;100.00;65034.22;4993225;28;20544;-52
2023/03/16 06:48:15;;;;;;;30.27;28.07;;;;;;;-141.22;100.00;65034.22;4993464;28;20458;-52
2023/03/16 06:50:44;;;;;;;30.43;28.17;;;;;;;-141.22;100.00;65034.22;4993048;28;20430;-53
2023/03/16 06:53:12;;;;;;;29.30;27.60;;;;;;;-141.22;100.00;65034.22;4993003;28;20442;-55
2023/03/16 06:55:40;;;;;;;28.77;27.07;;;;;;;-141.22;100.00;65034.22;4992745;28;20485;-51
2023/03/16 06:58:08;;;;;;;28.83;27.43;;;;;;;-141.22;100.00;65034.22;4993291;28;20462;-55
2023/03/16 07:00:35;;;;;;;29.43;27.40;;;;;;;-141.22;100.00;65034.22;4993126;28;20434;-53
2023/03/16 07:03:03;;;;;;;28.50;26.80;;;;;;;-141.22;100.00;65034.22;4992087;28;20437;-53
2023/03/16 07:05:32;;;;;;;27.23;26.03;;;;;;;-141.22;100.00;65034.22;4992791;28;20465;-51
2023/03/16 07:08:00;;;;;;;27.13;25.90;;;;;;;-141.22;100.00;65034.22;4993174;28;20445;-53
2023/03/16 07:10:28;;;;;;;26.10;25.00;;;;;;;-141.22;100.00;65034.22;4993105;28;20431;-51
2023/03/16 07:12:56;;;;;;;27.00;25.47;;;;;;;-141.22;100.00;65034.22;4992595;28;20434;-48
2023/03/16 07:15:25;;;;;;;26.23;24.40;;;;;;;-141.22;100.00;65034.22;4992324;28;20457;-51
2023/03/16 07:17:53;;;;;;;25.33;23.67;;;;;;;-141.22;100.00;65034.22;4992760;28;20927;-50
2023/03/16 07:20:20;;;;;;;24.80;23.60;;;;;;;-141.22;100.00;65034.22;4992699;28;20959;-49
2023/03/16 07:22:51;;;;;;;24.57;22.97;;;;;;;-141.22;100.00;65034.22;4993019;28;20512;-51
2023/03/16 07:25:20;;;;;;;24.80;23.30;;;;;;;-141.22;100.00;65034.22;4992374;28;20466;-53
2023/03/16 07:27:47;;;;;;;24.57;22.90;;;;;;;-141.22;100.00;65034.22;4992641;28;20521;-51
2023/03/16 07:30:15;;;;;;;24.13;22.87;;;;;;;-141.22;100.00;65034.22;4992492;28;20896;-51
2023/03/16 07:32:43;;;;;;;23.80;22.60;;;;;;;-141.22;100.00;65034.22;4992354;28;20854;-52
2023/03/16 07:35:11;;;;;;;24.73;23.20;;;;;;;-141.22;100.00;65034.22;4992340;28;20473;-53
2023/03/16 07:37:39;;;;;;;25.07;23.67;;;;;;;-141.22;100.00;65034.22;4992794;28;20529;-51
2023/03/16 07:40:10;;;;;;;23.87;22.57;;;;;;;-141.22;100.00;65034.22;4992680;28;20426;-49
2023/03/16 07:42:37;;;;;;;24.93;23.67;;;;;;;-141.22;100.00;65034.22;4991864;28;20473;-51
2023/03/16 07:45:07;;;;;;;24.40;23.23;;;;;;;-141.22;100.00;65034.22;4992165;28;20998;-51
2023/03/16 07:47:35;;;;;;;25.00;23.33;;;;;;;-141.22;100.00;65034.22;4992728;28;20442;-50
2023/03/16 07:50:03;;;;;;;23.90;22.57;;;;;;;-141.22;100.00;65034.22;4992471;28;20819;-51
2023/03/16 07:52:31;;;;;;;22.53;21.43;;;;;;;-141.22;100.00;65034.22;4992012;28;20536;-48
2023/03/16 07:54:58;;;;;;;22.77;21.40;;;;;;;-141.22;100.00;65034.22;4991256;28;20555;-51
2023/03/16 07:57:27;;;;;;;23.40;22.00;;;;;;;-141.22;100.00;65034.22;4992486;28;20438;-52
2023/03/16 07:59:55;;;;;;;21.43;19.97;;;;;;;-141.22;100.00;65034.22;4992465;28;20438;-53
2023/03/16 08:02:23;;;;;;;20.77;19.47;;;;;;;-141.22;100.00;65034.22;4992099;28;20477;-49
2023/03/16 08:04:50;;;;;;;22.07;20.90;;;;;;;-141.22;100.00;65034.22;4992174;28;20957;-54
2023/03/16 08:07:18;;;;;;;24.23;21.83;;;;;;;-141.22;100.00;65034.22;4991707;28;20457;-48
2023/03/16 08:09:45;;;;;;;23.83;22.40;;;;;;;-141.22;100.00;65034.22;4992248;28;20438;-51
2023/03/16 08:12:13;;;;;;;26.43;24.83;;;;;;;-141.22;100.00;65034.22;4992160;28;20465;-52
2023/03/16 08:14:44;;;;;;;24.67;23.67;;;;;;;-141.22;100.00;65034.22;4996293;28;20434;-47
2023/03/16 08:17:12;;;;;;;24.57;23.23;;;;;;;-141.22;100.00;65034.22;4996118;28;20470;-51
2023/03/16 08:19:41;;;;;;;22.10;21.00;;;;;;;-141.22;100.00;65034.22;4996381;28;20935;-50
2023/03/16 08:22:09;;;;;;;23.17;21.90;;;;;;;-141.22;100.00;65034.22;4995834;28;20458;-54
2023/03/16 08:24:37;;;;;;;21.63;20.23;;;;;;;-141.22;100.00;65034.22;4996108;28;20464;-55
2023/03/16 08:27:04;;;;;;;23.00;21.40;;;;;;;-141.22;100.00;65034.22;4995834;28;20553;-51
2023/03/16 08:29:33;;;;;;;20.30;19.40;;;;;;;-141.22;100.00;65034.22;4996170;28;20819;-49
2023/03/16 08:32:02;;;;;;;19.13;18.20;;;;;;;-141.22;100.00;65034.22;4995825;28;20458;-50
2023/03/16 08:34:30;;;;;;;19.67;18.60;;;;;;;-141.22;100.00;65034.22;4996026;28;20832;-55
2023/03/16 08:37:00;;;;;;;19.50;18.53;;;;;;;-141.22;100.00;65034.22;4995541;28;20478;-49
2023/03/16 08:39:27;;;;;;;18.13;17.20;;;;;;;-141.22;100.00;65034.22;4995759;28;20436;-53
2023/03/16 08:41:56;;;;;;;18.73;17.37;;;;;;;-141.22;100.00;65034.22;4995820;28;20556;-49
2023/03/16 08:44:24;;;;;;;17.37;16.40;;;;;;;-141.22;100.00;65034.22;4995800;28;20528;-52
2023/03/16 08:46:52;;;;;;;18.90;17.47;;;;;;;-141.22;100.00;65034.22;4995130;28;20461;-47
2023/03/16 08:49:22;;;;;;;16.67;15.87;;;;;;;-141.22;100.00;65034.22;4994981;28;20449;-51
2023/03/16 08:51:50;;;;;;;16.87;15.97;;;;;;;-141.22;100.00;65034.22;4995423;28;20989;-51
2023/03/16 08:54:18;;;;;;;17.37;16.50;;;;;;;-141.22;100.00;65034.22;4995568;28;20438;-48
2023/03/16 08:56:45;;;;;;;15.50;14.70;;;;;;;-141.22;100.00;65034.22;4994638;28;20532;-48
2023/03/16 08:59:13;;;;;;;18.30;17.10;;;;;;;-141.22;100.00;65034.22;4995597;28;20430;-49
2023/03/16 09:01:55;;;;;;;17.47;16.20;;;;;;;-141.22;100.00;65034.22;4995045;28;20454;-52
2023/03/16 09:04:25;;;;;;;15.83;15.03;;;;;;;-141.22;100.00;65034.22;4995251;28;20442;-53
2023/03/16 09:06:52;;;;;;;16.37;15.27;;;;;;;-141.22;100.00;65034.22;4994749;28;20462;-52
2023/03/16 09:09:36;;;;;;;15.10;14.40;;;;;;;-141.22;100.00;65034.22;4995295;28;20438;-51
2023/03/16 09:12:05;;;;;;;15.50;14.80;;;;;;;-141.22;100.00;65034.22;4994836;28;20614;-53
2023/03/16 09:14:34;;;;;;;15.80;15.00;;;;;;;-141.22;100.00;65034.22;4995383;28;20796;-48
2023/03/16 09:17:01;;;;;;;16.00;15.00;;;;;;;-141.22;100.00;65034.22;4994809;28;20478;-55
2023/03/16 09:19:32;;;;;;;14.20;13.60;;;;;;;-141.22;100.00;65034.22;4994890;28;20465;-55
2023/03/16 09:22:18;;;;;;;14.17;13.57;;;;;;;-141.22;100.00;65034.22;4994743;28;20481;-54
2023/03/16 09:24:46;;;;;;;15.17;14.40;;;;;;;-141.22;100.00;65034.22;4994158;28;20524;-53
2023/03/16 09:27:14;;;;;;;14.20;13.30;;;;;;;-141.22;100.00;65034.22;4994431;28;20466;-51
2023/03/16 09:29:42;;;;;;;14.10;13.50;;;;;;;-141.22;100.00;65034.22;4995041;28;21005;-50
2023/03/16 09:32:10;;;;;;;13.80;13.20;;;;;;;-141.22;100.00;65034.22;4994733;28;20464;-56
2023/03/16 09:34:39;;;;;;;14.10;13.20;;;;;;;-141.22;100.00;65034.22;4994702;28;20466;-55
2023/03/16 09:37:08;;;;;;;13.63;12.80;;;;;;;-141.22;100.00;65034.22;4993944;28;20480;-52
2023/03/16 09:39:37;;;;;;;13.70;13.00;;;;;;;-141.22;100.00;65034.22;4994374;28;20965;-53
2023/03/16 09:42:13;;;;;;;12.70;12.10;;;;;;;-141.22;100.00;65034.22;4994295;28;20508;-51
2023/03/16 09:44:56;;;;;;;14.10;13.20;;;;;;;-141.22;100.00;65034.22;4994670;28;20530;-55
2023/03/16 09:47:28;;;;;;;12.13;11.40;;;;;;;-141.22;100.00;65034.22;4994451;28;20429;-53
2023/03/16 09:50:00;;;;;;;11.40;10.90;;;;;;;-141.22;100.00;65034.22;4994777;28;20533;-55
2023/03/16 09:52:34;;;;;;;12.50;11.40;;;;;;;-141.22;100.00;65034.22;4994295;28;20512;-49
2023/03/16 09:55:07;;;;;;;11.80;11.30;;;;;;;-141.22;100.00;65034.22;4994202;28;20433;-53
2023/03/16 09:57:39;;;;;;;11.43;10.73;;;;;;;-141.22;100.00;65034.22;4994455;28;20520;-52
2023/03/16 10:00:17;;;;;;;12.13;11.27;;;;;;;-141.22;100.00;65034.22;4994387;28;20811;-55
2023/03/16 10:02:58;;;;;;;9.90;9.50;;;;;;;-141.22;100.00;65034.22;4994276;28;20446;-52
2023/03/16 10:05:28;;;;;;;10.70;10.00;;;;;;;-141.22;100.00;65034.22;4993557;28;20458;-52
2023/03/16 10:08:07;;;;;;;11.50;10.70;;;;;;;-141.22;100.00;65034.22;4994174;28;20916;-55
2023/03/16 10:11:03;;;;;;;11.23;10.63;;;;;;;-141.22;100.00;65034.22;4994056;28;20437;-53
2023/03/16 10:13:37;;;;;;;10.20;9.80;;;;;;;-141.22;100.00;65034.22;4994309;28;20437;-54
2023/03/16 10:16:10;;;;;;;11.03;10.07;;;;;;;-141.22;100.00;65034.22;4993677;28;20463;-53
2023/03/16 10:18:43;;;;;;;10.60;10.10;;;;;;;-141.22;100.00;65034.22;4993841;28;20457;-50
2023/03/16 10:21:15;;;;;;;11.17;10.30;;;;;;;-141.22;100.00;65034.22;4993711;28;20449;-55
2023/03/16 10:23:44;;;;;;;10.50;9.50;;;;;;;-141.22;100.00;65034.22;4993947;28;20430;-51
2023/03/16 10:26:20;;;;;;;10.27;9.63;;;;;;;-141.22;100.00;65034.22;4993293;28;20882;-55
2023/03/16 10:28:48;;;;;;;9.03;8.60;;;;;;;-141.22;100.00;65034.22;4993634;28;20430;-53
2023/03/16 10:31:20;;;;;;;10.80;9.93;;;;;;;-141.22;100.00;65034.22;4993702;28;20978;-55
2023/03/16 10:33:50;;;;;;;9.83;9.13;;;;;;;-141.22;100.00;65034.22;4993659;28;20441;-54
2023/03/16 10:36:32;;;;;;;7.60;7.23;;;;;;;-141.22;100.00;65034.22;4992282;28;20567;-53
2023/03/16 10:39:02;;;;;;;7.73;7.23;;;;;;;-141.22;100.00;65034.22;4993532;28;20938;-51
2023/03/16 10:41:32;;;;;;;9.03;8.33;;;;;;;-141.22;100.00;65034.22;4993126;28;20466;-49
2023/03/16 10:44:06;;;;;;;7.60;7.10;;;;;;;-141.22;100.00;65034.22;4993317;28;20434;-55
2023/03/16 10:46:38;;;;;;;7.93;7.43;;;;;;;-141.22;100.00;65034.22;4993271;28;20458;-52
2023/03/16 10:49:20;;;;;;;7.83;7.10;;;;;;;-141.22;100.00;65034.22;4993700;28;20488;-53
2023/03/16 10:51:50;;;;;;;7.57;6.87;;;;;;;-141.22;100.00;65034.22;4993335;28;20454;-54
2023/03/16 10:54:27;;;;;;;8.70;8.20;;;;;;;-141.22;100.00;65034.22;4993108;28;20486;-53
2023/03/16 10:56:55;;;;;;;8.27;7.97;;;;;;;-141.22;100.00;65034.22;4992921;28;20527;-54
2023/03/16 10:59:30;;;;;;;8.30;7.40;;;;;;;-141.22;100.00;65034.22;4993413;28;20438;-53
2023/03/16 11:01:58;;;;;;;8.70;8.10;;;;;;;-141.22;100.00;65034.22;4992939;28;20468;-51
2023/03/16 11:04:31;;;;;;;7.00;6.60;;;;;;;-141.22;100.00;65034.22;4992971;28;20430;-51